Time;durP1;ratioP1;P1;durP2;ratioP2;P2;SDS_P1;SDS_P2;PMS_P1;PMS_P2;Temp;Humidity;BMP_temperature;BMP_pressure;BME280_temperature;BME280_humidity;BME280_pressure;Samples;Min_cycle;Max_cycle;Signal;HPM_P1;HPM_P2
2022/04/22 00:00:10;;;;;;;;;7.75;7.00;;;;;17.26;38.49;99953.56;5075500;28;47600;-65
2022/04/22 00:02:36;;;;;;;;;5.00;5.00;;;;;17.22;38.59;99931.38;5072139;28;45649;-65
2022/04/22 00:05:02;;;;;;;;;5.00;5.00;;;;;17.18;38.54;99931.69;5056425;28;45471;-65
2022/04/22 00:07:28;;;;;;;;;5.50;4.75;;;;;17.38;38.64;99970.69;5070896;28;45432;-65
2022/04/22 00:09:57;;;;;;;;;8.25;7.75;;;;;17.28;38.90;99951.63;5085138;27;47677;-65
2022/04/22 00:12:23;;;;;;;;;2.75;2.75;;;;;17.37;38.75;99967.16;5050699;28;45458;-65
2022/04/22 00:14:48;;;;;;;;;6.50;6.50;;;;;17.15;38.82;99931.91;5059663;28;45228;-65
2022/04/22 00:17:14;;;;;;;;;9.75;6.00;;;;;17.31;39.07;99954.09;5058184;28;46012;-65
2022/04/22 00:19:40;;;;;;;;;7.50;6.00;;;;;17.28;38.88;99965.09;5045876;28;45558;-65
2022/04/22 00:22:05;;;;;;;;;6.00;6.00;;;;;17.34;38.67;99971.88;5068191;28;45440;-65
2022/04/22 00:24:30;;;;;;;;;4.00;4.00;;;;;17.12;39.18;99938.38;5058043;28;45296;-65
2022/04/22 00:26:56;;;;;;;;;8.50;6.75;;;;;17.21;39.31;99950.34;5054504;28;45416;-65
2022/04/22 00:29:21;;;;;;;;;6.25;5.00;;;;;17.23;38.83;99951.94;5049873;28;45898;-65
2022/04/22 00:31:47;;;;;;;;;5.75;5.75;;;;;17.04;39.49;99920.06;5063338;28;45286;-65
2022/04/22 00:34:12;;;;;;;;;7.00;5.00;;;;;17.19;39.22;99950.47;5062870;28;45219;-65
2022/04/22 00:36:38;;;;;;;;;6.75;5.50;;;;;17.00;39.08;99917.72;5078317;28;45608;-65
2022/04/22 00:39:03;;;;;;;;;6.75;6.75;;;;;17.15;39.40;99945.41;5062558;28;45594;-65
2022/04/22 00:41:30;;;;;;;;;5.50;5.50;;;;;16.95;39.26;99911.78;5058344;28;45397;-65
2022/04/22 00:43:55;;;;;;;;;5.00;5.00;;;;;16.84;39.65;99902.66;5058047;28;45444;-65
2022/04/22 00:46:20;;;;;;;;;5.50;5.00;;;;;17.16;39.67;99952.53;5062867;28;45441;-65
2022/04/22 00:48:46;;;;;;;;;5.75;5.50;;;;;17.13;39.27;99947.34;5055049;28;45563;-65
2022/04/22 00:51:12;;;;;;;;;8.75;7.00;;;;;16.90;39.55;99924.75;5062915;28;45347;-65
2022/04/22 00:53:40;;;;;;;;;6.00;6.00;;;;;16.84;39.69;99916.13;5062344;28;45392;-65
2022/04/22 00:56:08;;;;;;;;;6.50;5.75;;;;;16.91;39.27;99927.31;5052830;28;45525;-65
2022/04/22 00:58:39;;;;;;;;;6.50;6.50;;;;;16.85;39.95;99919.66;5062571;28;45516;-65
2022/04/22 01:01:04;;;;;;;;;5.25;5.25;;;;;17.06;39.87;99954.13;5062834;28;45243;-65
2022/04/22 01:03:30;;;;;;;;;7.00;6.25;;;;;16.59;39.83;99883.75;5074882;28;45328;-65
2022/04/22 01:11:27;;;;;;;;;5.50;5.50;;;;;16.89;39.79;99926.59;5061679;28;45263;-65
2022/04/22 01:13:53;;;;;;;;;7.50;6.25;;;;;16.83;39.82;99922.44;5062600;28;45378;-65
2022/04/22 01:16:19;;;;;;;;;10.25;7.75;;;;;16.76;39.78;99906.84;5062130;28;45461;-65
2022/04/22 01:18:44;;;;;;;;;7.50;7.50;;;;;16.84;39.73;99928.72;5052581;28;45554;-65
2022/04/22 01:21:10;;;;;;;;;10.25;8.00;;;;;16.76;40.01;99931.09;5057411;28;45532;-65
2022/04/22 01:23:36;;;;;;;;;7.00;7.00;;;;;16.80;40.07;99935.28;5085653;27;45342;-65
2022/04/22 01:26:02;;;;;;;;;7.25;7.00;;;;;16.58;40.28;99893.69;5056593;28;45441;-65
2022/04/22 01:28:28;;;;;;;;;6.25;4.75;;;;;16.63;39.99;99899.59;5071940;28;47941;-65
2022/04/22 01:31:00;;;;;;;;;6.00;6.00;;;;;16.75;39.98;99923.97;5060838;28;45289;-65
2022/04/22 01:33:25;;;;;;;;;5.75;5.25;;;;;16.72;40.25;99921.47;5060998;28;45332;-65
2022/04/22 01:35:51;;;;;;;;;9.00;8.00;;;;;16.72;40.05;99925.03;5060779;28;45465;-65
2022/04/22 01:38:16;;;;;;;;;6.25;6.25;;;;;16.53;40.15;99889.63;5056679;28;47209;-65
2022/04/22 01:40:42;;;;;;;;;9.75;7.25;;;;;16.74;40.31;99919.53;5057064;28;45969;-65
2022/04/22 01:43:08;;;;;;;;;7.25;7.00;;;;;16.54;40.24;99888.63;5062083;28;45713;-65
2022/04/22 01:45:34;;;;;;;;;6.75;6.75;;;;;16.61;40.44;99911.50;5058166;28;45550;-65
2022/04/22 01:47:59;;;;;;;;;7.75;6.25;;;;;16.61;40.52;99896.16;5061683;28;45603;-65
2022/04/22 01:50:25;;;;;;;;;9.00;7.25;;;;;16.38;39.73;99868.16;5061844;28;45247;-65
2022/04/22 01:52:50;;;;;;;;;7.00;7.00;;;;;16.45;40.34;99877.53;5061921;28;45260;-65
2022/04/22 01:55:16;;;;;;;;;8.00;7.00;;;;;16.64;40.24;99913.97;5061598;28;45275;-65
2022/04/22 01:57:41;;;;;;;;;8.25;8.25;;;;;16.52;40.56;99896.81;5060581;28;47161;-65
2022/04/22 02:00:08;;;;;;;;;7.75;7.00;;;;;16.65;40.36;99912.97;5061585;28;45211;-66
2022/04/22 02:02:34;;;;;;;;;9.25;8.75;;;;;16.44;40.40;99878.50;5069494;28;45512;-65
2022/04/22 02:05:00;;;;;;;;;7.00;7.00;;;;;16.59;40.39;99897.22;5060301;28;45650;-65
2022/04/22 02:07:25;;;;;;;;;9.00;9.00;;;;;16.52;40.13;99891.41;5061318;28;46017;-65
2022/04/22 02:09:51;;;;;;;;;8.00;8.00;;;;;16.58;40.37;99900.91;5061349;28;45372;-65
2022/04/22 02:12:16;;;;;;;;;8.25;8.00;;;;;16.34;40.58;99865.78;5069825;28;45371;-65
2022/04/22 02:14:42;;;;;;;;;7.50;7.00;;;;;16.53;40.25;99909.31;5060169;28;45373;-65
2022/04/22 02:17:07;;;;;;;;;7.50;6.50;;;;;16.39;40.75;99887.88;5061670;28;46019;-65
2022/04/22 02:19:33;;;;;;;;;8.50;6.50;;;;;16.37;40.75;99903.28;5047932;28;45481;-65
2022/04/22 02:21:58;;;;;;;;;9.50;9.50;;;;;16.31;40.84;99899.19;5061353;28;45267;-66
2022/04/22 02:24:24;;;;;;;;;7.00;6.75;;;;;16.19;40.78;99884.75;5077085;28;45390;-65
2022/04/22 02:29:33;;;;;;;;;6.25;6.25;;;;;16.21;41.13;99884.66;5056815;28;45288;-65
2022/04/22 02:31:59;;;;;;;;;7.75;7.75;;;;;16.29;41.06;99898.44;5061547;28;45216;-65
2022/04/22 02:34:25;;;;;;;;;8.00;8.00;;;;;16.16;41.21;99871.50;5076763;28;45488;-65
2022/04/22 02:36:51;;;;;;;;;8.50;8.25;;;;;16.37;41.37;99898.78;5060418;28;46227;-65
2022/04/22 02:39:18;;;;;;;;;7.00;7.00;;;;;16.19;41.44;99851.56;5060948;28;45409;-65
2022/04/22 02:47:19;;;;;;;;;7.00;7.00;;;;;16.16;41.34;99851.81;5037850;28;45944;-65
2022/04/22 02:49:44;;;;;;;;;9.00;9.00;;;;;16.39;41.75;99887.88;5056272;28;45745;-65
2022/04/22 02:52:14;;;;;;;;;8.00;7.75;;;;;16.11;41.09;99844.91;5059255;28;45333;-65
2022/04/22 02:54:40;;;;;;;;;10.25;10.25;;;;;16.03;41.60;99838.31;5059611;28;45798;-65
2022/04/22 02:57:06;;;;;;;;;8.50;8.25;;;;;16.27;41.20;99873.44;5060769;28;47407;-65
2022/04/22 02:59:34;;;;;;;;;9.00;8.00;;;;;16.32;41.36;99883.88;5073086;28;45508;-65
2022/04/22 03:02:00;;;;;;;;;7.00;7.00;;;;;16.06;41.26;99846.19;5059197;28;45483;-65
2022/04/22 03:04:26;;;;;;;;;7.00;7.00;;;;;16.18;41.33;99884.88;5059329;28;45905;-65
2022/04/22 03:06:51;;;;;;;;;8.00;8.00;;;;;15.95;41.25;99854.16;5060495;28;45851;-65
2022/04/22 03:09:17;;;;;;;;;7.00;7.00;;;;;15.99;41.70;99855.63;5060475;28;45422;-65
2022/04/22 03:11:43;;;;;;;;;8.25;8.25;;;;;15.87;41.69;99846.59;5059828;28;45334;-65
2022/04/22 03:14:09;;;;;;;;;6.25;6.25;;;;;15.76;41.68;99833.88;5074793;28;45635;-65
2022/04/22 03:16:35;;;;;;;;;7.00;7.00;;;;;15.80;41.92;99842.59;5060547;28;45549;-65
2022/04/22 03:19:01;;;;;;;;;6.50;6.50;;;;;15.78;41.65;99842.69;5049314;28;45380;-65
2022/04/22 03:21:26;;;;;;;;;8.00;7.00;;;;;15.97;41.85;99873.72;5059276;28;45449;-65
2022/04/22 03:23:52;;;;;;;;;9.25;7.50;;;;;15.60;42.03;99815.19;5058792;28;45519;-65
2022/04/22 03:26:18;;;;;;;;;9.00;8.00;;;;;16.01;41.98;99878.81;5073340;28;46142;-65
2022/04/22 03:28:44;;;;;;;;;7.50;7.50;;;;;15.78;42.28;99848.09;5059380;28;45329;-65
2022/04/22 03:31:10;;;;;;;;;6.25;6.00;;;;;15.74;42.33;99842.03;5060589;28;45314;-65
2022/04/22 03:33:36;;;;;;;;;7.25;7.00;;;;;15.74;42.02;99839.34;5064960;28;45453;-65
2022/04/22 03:36:01;;;;;;;;;7.00;7.00;;;;;15.92;42.46;99863.28;5055350;28;47074;-65
2022/04/22 03:38:29;;;;;;;;;6.75;6.00;;;;;15.86;42.07;99850.25;5050756;28;45226;-65
2022/04/22 03:40:54;;;;;;;;;8.00;6.50;;;;;15.93;42.26;99863.19;5060488;28;45401;-65
2022/04/22 03:43:22;;;;;;;;;8.50;8.50;;;;;15.67;42.15;99829.97;5060291;28;45347;-65
2022/04/22 03:45:48;;;;;;;;;11.00;8.00;;;;;15.88;42.19;99867.16;5059969;28;46357;-65
2022/04/22 03:48:14;;;;;;;;;6.75;6.75;;;;;15.78;42.39;99853.47;5060265;28;45317;-65
2022/04/22 03:50:39;;;;;;;;;8.00;8.00;;;;;15.73;42.41;99844.81;5059074;28;45216;-65
2022/04/22 03:53:06;;;;;;;;;8.50;8.25;;;;;15.51;42.50;99819.38;5059642;28;45428;-65
2022/04/22 03:55:32;;;;;;;;;13.00;9.00;;;;;15.57;42.23;99832.41;5059557;28;45722;-65
2022/04/22 03:58:10;;;;;;;;;10.25;7.75;;;;;15.60;42.49;99828.63;5060061;28;45389;-65
2022/04/22 04:00:43;;;;;;;;;8.00;8.00;;;;;15.64;42.43;99834.69;5060399;28;45501;-65
2022/04/22 04:03:10;;;;;;;;;8.00;7.00;;;;;15.66;42.29;99860.50;5058611;28;45784;-65
2022/04/22 04:05:39;;;;;;;;;9.00;9.00;;;;;15.56;42.55;99837.91;5059376;28;45508;-65
2022/04/22 04:08:06;;;;;;;;;10.75;9.75;;;;;15.50;42.65;99827.53;5059337;28;45277;-65
2022/04/22 04:16:01;;;;;;;;;8.25;7.75;;;;;15.49;42.65;99825.84;5059551;28;45945;-65
2022/04/22 04:18:31;;;;;;;;;9.50;9.00;;;;;15.59;42.47;99861.91;5063478;28;45197;-65
2022/04/22 04:23:42;;;;;;;;;8.75;7.00;;;;;15.44;42.88;99842.28;5059315;28;45419;-65
2022/04/22 04:26:09;;;;;;;;;8.00;8.00;;;;;15.27;42.92;99812.94;5061575;28;48013;-66
2022/04/22 04:28:35;;;;;;;;;8.00;7.25;;;;;15.41;43.04;99841.63;5068314;27;45470;-65
2022/04/22 04:31:01;;;;;;;;;9.50;9.50;;;;;15.26;42.88;99832.75;5051166;28;45315;-65
2022/04/22 04:33:27;;;;;;;;;9.75;8.75;;;;;15.25;43.30;99842.66;5051070;28;45970;-65
2022/04/22 04:35:53;;;;;;;;;8.25;7.75;;;;;15.16;43.36;99829.81;5058055;28;47493;-65
2022/04/22 04:38:20;;;;;;;;;9.25;7.25;;;;;15.05;43.38;99809.03;5058146;28;45897;-65
2022/04/22 04:40:45;;;;;;;;;7.75;7.75;;;;;15.27;43.31;99840.72;5057986;28;45475;-65
2022/04/22 04:43:11;;;;;;;;;8.75;8.75;;;;;15.18;43.31;99844.00;5058999;28;45315;-65
2022/04/22 04:45:36;;;;;;;;;9.50;9.50;;;;;15.06;43.43;99831.38;5058057;28;47007;-65
2022/04/22 04:48:03;;;;;;;;;9.00;9.00;;;;;14.76;43.78;99805.53;5059520;28;45479;-65
2022/04/22 04:50:29;;;;;;;;;9.25;9.25;;;;;14.93;43.96;99834.00;5058163;28;45303;-65
2022/04/22 04:52:54;;;;;;;;;10.25;9.50;;;;;14.91;43.89;99836.78;5071785;28;45356;-65
2022/04/22 04:55:20;;;;;;;;;10.50;10.00;;;;;14.56;44.47;99791.53;5057103;28;45484;-65
2022/04/22 04:57:45;;;;;;;;;9.75;9.75;;;;;14.87;44.20;99835.25;5059458;28;45155;-65
2022/04/22 05:00:12;;;;;;;;;8.50;8.50;;;;;14.76;44.20;99808.22;5059358;28;45629;-65
2022/04/22 05:02:38;;;;;;;;;10.25;9.00;;;;;14.78;44.01;99801.81;5059116;28;45437;-65
2022/04/22 05:05:05;;;;;;;;;9.50;9.50;;;;;14.91;43.99;99828.72;5058337;28;46371;-65
2022/04/22 05:07:32;;;;;;;;;9.00;9.00;;;;;14.48;44.11;99768.81;5065785;28;45619;-65
2022/04/22 05:09:57;;;;;;;;;11.75;10.25;;;;;14.66;44.28;99790.97;5058917;28;45429;-65
2022/04/22 05:12:23;;;;;;;;;10.50;9.50;;;;;14.95;44.55;99837.44;5059102;28;45534;-65
2022/04/22 05:14:48;;;;;;;;;12.75;11.25;;;;;14.79;44.32;99808.88;5058617;28;46102;-65
2022/04/22 05:17:14;;;;;;;;;9.25;8.00;;;;;14.92;44.21;99833.13;5060878;28;45376;-65
2022/04/22 05:19:40;;;;;;;;;12.00;10.50;;;;;14.82;44.73;99826.66;5048967;28;45311;-65
2022/04/22 05:22:05;;;;;;;;;9.25;9.25;;;;;14.60;44.56;99798.47;5074430;28;45623;-65
2022/04/22 05:24:31;;;;;;;;;8.00;8.00;;;;;14.73;44.65;99825.38;5069779;28;45547;-65
2022/04/22 05:26:57;;;;;;;;;9.00;8.75;;;;;14.56;45.00;99799.59;5071086;28;45446;-65
2022/04/22 05:34:51;;;;;;;;;11.50;10.00;;;;;14.39;45.07;99794.44;5056657;28;45283;-65
2022/04/22 05:37:16;;;;;;;;;11.75;10.75;;;;;14.43;45.42;99807.59;5065184;28;45915;-65
2022/04/22 05:39:43;;;;;;;;;9.00;9.00;;;;;14.42;45.19;99796.94;5074319;28;45232;-65
2022/04/22 05:42:09;;;;;;;;;11.00;10.00;;;;;14.46;45.24;99811.88;5077533;28;45464;-65
2022/04/22 05:44:35;;;;;;;;;8.50;8.00;;;;;14.53;45.54;99829.31;5082259;27;47993;-65
2022/04/22 05:47:01;;;;;;;;;11.00;10.75;;;;;14.50;45.19;99823.28;5056220;28;45461;-65
2022/04/22 05:49:27;;;;;;;;;12.75;11.25;;;;;14.37;45.39;99794.53;5061882;28;45360;-65
2022/04/22 05:51:54;;;;;;;;;12.75;11.00;;;;;14.56;45.76;99826.44;5060832;28;45391;-65
2022/04/22 05:54:20;;;;;;;;;11.50;10.75;;;;;14.44;45.87;99822.72;5059944;28;48304;-65
2022/04/22 05:56:45;;;;;;;;;11.50;10.50;;;;;14.31;45.82;99800.28;5060334;28;45209;-65
2022/04/22 05:59:10;;;;;;;;;11.00;11.00;;;;;14.45;45.72;99819.06;5043979;28;45363;-65
2022/04/22 06:01:36;;;;;;;;;13.25;10.75;;;;;14.27;45.96;99796.94;5061326;28;45251;-65
2022/04/22 06:04:01;;;;;;;;;12.25;12.25;;;;;14.41;45.86;99814.84;5061608;28;45276;-65
2022/04/22 06:06:27;;;;;;;;;11.00;11.00;;;;;14.59;45.90;99853.13;5060121;28;46016;-65
2022/04/22 06:11:36;;;;;;;;;11.25;9.50;;;;;14.28;46.35;99816.56;5061501;28;45413;-65
2022/04/22 06:14:02;;;;;;;;;13.00;11.00;;;;;14.43;46.49;99855.91;5050679;28;45306;-65
2022/04/22 06:16:28;;;;;;;;;13.00;12.00;;;;;14.30;46.51;99836.16;5048194;28;45631;-68
2022/04/22 06:18:53;;;;;;;;;12.25;11.75;;;;;14.23;46.70;99832.09;5059443;28;45430;-68
2022/04/22 06:21:18;;;;;;;;;13.25;13.25;;;;;14.41;46.67;99844.38;5062654;28;45281;-68
2022/04/22 06:23:44;;;;;;;;;9.25;9.00;;;;;14.45;46.68;99845.06;5059743;28;46443;-68
2022/04/22 06:26:09;;;;;;;;;13.25;11.75;;;;;14.23;46.37;99799.91;5061415;28;45404;-67
2022/04/22 06:28:34;;;;;;;;;16.00;15.25;;;;;14.40;46.52;99825.69;5085562;27;45613;-67
2022/04/22 06:31:00;;;;;;;;;13.75;13.00;;;;;14.21;46.85;99813.41;5051310;28;45420;-68
2022/04/22 06:33:26;;;;;;;;;13.50;12.75;;;;;14.31;46.87;99821.75;5060496;28;46583;-66
2022/04/22 06:35:52;;;;;;;;;9.75;9.75;;;;;14.39;46.77;99832.03;5059529;28;45421;-66
2022/04/22 06:38:18;;;;;;;;;13.00;13.00;;;;;14.44;47.02;99829.91;5052871;28;45402;-65
2022/04/22 06:46:13;;;;;;;;;13.25;13.25;;;;;14.34;46.90;99800.09;5061103;28;45609;-66
2022/04/22 06:48:39;;;;;;;;;14.25;13.00;;;;;14.41;46.90;99811.31;5054650;28;45808;-66
2022/04/22 06:51:06;;;;;;;;;15.75;13.00;;;;;14.54;46.95;99832.88;5048633;28;45539;-66
2022/04/22 06:53:35;;;;;;;;;18.25;16.25;;;;;14.45;47.55;99808.34;5056091;28;47748;-65
2022/04/22 06:56:06;;;;;;;;;14.25;13.00;;;;;14.58;47.04;99837.97;5045582;28;45759;-66
2022/04/22 06:58:37;;;;;;;;;15.00;15.00;;;;;14.38;47.12;99804.31;5055821;28;45247;-66
2022/04/22 07:01:12;;;;;;;;;13.00;13.00;;;;;14.63;47.01;99837.69;5051527;28;45459;-66
2022/04/22 07:03:38;;;;;;;;;14.25;11.50;;;;;14.44;47.08;99797.69;5055561;28;47031;-67
2022/04/22 07:06:04;;;;;;;;;16.75;16.00;;;;;14.26;46.88;99775.56;5045221;28;45411;-66
2022/04/22 07:08:30;;;;;;;;;14.00;14.00;;;;;14.41;47.20;99793.38;5051403;28;45369;-67
2022/04/22 07:11:00;;;;;;;;;17.50;14.50;;;;;14.54;47.36;99806.03;5056378;28;45492;-66
2022/04/22 07:13:26;;;;;;;;;16.75;13.50;;;;;14.66;47.01;99826.75;5059101;28;45459;-68
2022/04/22 07:15:56;;;;;;;;;16.50;16.50;;;;;14.73;47.24;99830.75;5064113;28;46641;-68
2022/04/22 07:18:22;;;;;;;;;15.50;13.00;;;;;14.59;47.56;99812.00;5084204;27;45404;-66
2022/04/22 07:20:48;;;;;;;;;12.50;12.50;;;;;14.74;47.31;99827.13;5049284;28;45551;-65
2022/04/22 07:23:14;;;;;;;;;11.25;11.25;;;;;14.76;47.30;99832.41;5050845;28;47370;-67
2022/04/22 07:25:43;;;;;;;;;15.00;11.50;;;;;14.60;47.17;99802.97;5064606;28;45375;-67
2022/04/22 07:28:09;;;;;;;;;18.50;16.75;;;;;14.57;47.10;99781.66;5067239;28;45408;-67
2022/04/22 07:30:35;;;;;;;;;18.75;17.25;;;;;14.87;47.15;99821.84;5047108;28;45530;-66
2022/04/22 07:33:01;;;;;;;;;13.75;13.00;;;;;14.89;47.30;99821.72;5056582;28;47052;-69
2022/04/22 07:35:27;;;;;;;;;13.50;13.50;;;;;14.67;47.15;99774.78;5054413;28;45538;-69
2022/04/22 07:37:53;;;;;;;;;13.25;11.50;;;;;15.00;46.80;99835.31;5059170;28;45465;-69
2022/04/22 07:40:25;;;;;;;;;15.00;14.50;;;;;14.96;46.67;99818.53;5056360;28;45663;-69
2022/04/22 07:48:25;;;;;;;;;14.25;14.25;;;;;15.16;46.93;99825.28;5046806;28;45498;-70
2022/04/22 07:50:51;;;;;;;;;16.00;15.25;;;;;15.08;46.97;99811.47;5038931;28;45596;-70
2022/04/22 07:53:17;;;;;;;;;15.50;15.25;;;;;14.92;46.57;99790.16;5052141;28;45541;-70
2022/04/22 07:55:43;;;;;;;;;16.25;14.75;;;;;15.12;46.64;99810.34;5058126;28;45321;-70
2022/04/22 07:58:15;;;;;;;;;15.00;15.00;;;;;15.20;46.65;99815.19;5065633;27;45739;-70
2022/04/22 08:00:44;;;;;;;;;15.00;13.00;;;;;15.00;46.73;99773.50;5068378;28;45547;-70
2022/04/22 08:03:10;;;;;;;;;11.75;11.00;;;;;15.32;46.68;99819.75;5052945;28;47131;-72
2022/04/22 08:05:39;;;;;;;;;15.00;15.00;;;;;15.25;46.49;99809.50;5058915;28;45623;-72
2022/04/22 08:08:06;;;;;;;;;20.50;16.50;;;;;15.28;46.11;99817.38;5051931;28;45386;-68
2022/04/22 08:10:32;;;;;;;;;16.25;16.25;;;;;15.33;46.93;99820.63;5052484;28;45563;-69
2022/04/22 08:12:57;;;;;;;;;13.75;13.25;;;;;15.26;46.58;99789.72;5074456;28;47017;-69
2022/04/22 08:15:23;;;;;;;;;15.00;13.50;;;;;15.28;46.41;99796.72;5057648;28;45963;-69
2022/04/22 08:17:49;;;;;;;;;13.25;12.00;;;;;15.30;45.92;99784.06;5058684;28;45449;-69
2022/04/22 08:20:14;;;;;;;;;17.00;15.25;;;;;15.59;46.29;99824.25;5058691;28;45364;-69
2022/04/22 08:22:40;;;;;;;;;16.75;15.25;;;;;15.42;46.00;99786.84;5057544;28;48203;-70
2022/04/22 08:25:06;;;;;;;;;18.00;17.25;;;;;15.52;46.01;99804.13;5088619;27;45315;-70
2022/04/22 08:27:32;;;;;;;;;15.25;14.25;;;;;15.55;46.36;99815.53;5056224;28;45521;-71
2022/04/22 08:30:00;;;;;;;;;14.25;13.25;;;;;15.53;45.96;99800.44;5055724;28;45323;-71
2022/04/22 08:32:27;;;;;;;;;12.75;12.75;;;;;15.69;45.98;99805.66;5051724;28;46088;-68
2022/04/22 08:34:52;;;;;;;;;16.75;15.00;;;;;15.67;45.71;99802.19;5076054;27;45526;-69
2022/04/22 08:37:18;;;;;;;;;12.25;12.00;;;;;15.64;45.43;99773.69;5051575;28;45553;-68
2022/04/22 08:39:44;;;;;;;;;13.75;13.00;;;;;15.57;45.59;99748.19;5054449;28;45813;-68
2022/04/22 08:42:14;;;;;;;;;15.50;14.75;;;;;15.73;45.18;99766.78;5048665;28;46633;-69
2022/04/22 08:44:40;;;;;;;;;10.00;10.00;;;;;15.62;45.43;99746.03;5048697;28;45505;-69
2022/04/22 08:50:01;;;;;;;;;12.00;11.25;;;;;16.00;44.76;99782.88;5043520;28;45568;-68
2022/04/22 08:52:31;;;;;;;;;12.00;9.50;;;;;15.82;44.82;99741.97;5043889;28;46270;-68
2022/04/22 08:54:57;;;;;;;;;13.75;11.25;;;;;16.20;44.87;99794.91;5066372;27;45805;-67
2022/04/22 08:57:23;;;;;;;;;10.25;10.25;;;;;15.80;44.19;99733.13;5056987;28;45855;-68
2022/04/22 08:59:49;;;;;;;;;12.00;11.00;;;;;16.11;44.16;99776.75;5054039;28;45956;-68
2022/04/22 09:02:18;;;;;;;;;10.75;10.75;;;;;15.75;44.45;99713.72;5047549;28;45750;-65
2022/04/22 09:04:47;;;;;;;;;12.25;12.00;;;;;16.29;44.20;99802.34;5040803;28;45817;-65
2022/04/22 09:07:14;;;;;;;;;12.25;11.50;;;;;16.30;43.78;99796.00;5050117;28;45371;-65
2022/04/22 09:09:40;;;;;;;;;13.75;13.25;;;;;16.20;43.95;99784.16;5041075;28;45639;-65
2022/04/22 09:12:11;;;;;;;;;15.00;12.25;;;;;16.23;44.40;99785.78;5053064;28;46893;-66
2022/04/22 09:14:44;;;;;;;;;12.75;12.75;;;;;16.08;43.88;99761.66;5051274;28;45725;-66
2022/04/22 09:17:12;;;;;;;;;15.00;14.25;;;;;16.14;43.65;99765.75;5057463;28;45698;-66
2022/04/22 09:19:37;;;;;;;;;10.25;9.75;;;;;16.36;43.66;99797.41;5054052;28;45901;-66
2022/04/22 09:22:03;;;;;;;;;11.00;11.00;;;;;16.39;43.64;99788.22;5056139;28;45580;-66
2022/04/22 09:24:29;;;;;;;;;12.00;10.75;;;;;16.11;43.54;99737.22;5067684;28;45432;-66
2022/04/22 09:27:05;;;;;;;;;11.75;10.75;;;;;16.22;44.12;99741.84;5053992;28;45935;-66
2022/04/22 09:29:57;;;;;;;;;12.25;12.25;;;;;16.32;43.93;99744.72;5069261;28;45595;-66
2022/04/22 09:32:32;;;;;;;;;11.25;11.25;;;;;16.59;43.43;99773.31;5053210;28;46768;-66
2022/04/22 09:35:20;;;;;;;;;12.25;12.25;;;;;16.59;43.29;99771.50;5054917;28;45722;-66
2022/04/22 09:43:45;;;;;;;;;10.75;10.00;;;;;16.72;43.10;99752.56;5050731;28;45851;-66
2022/04/22 09:46:27;;;;;;;;;13.25;12.00;;;;;16.72;42.75;99751.72;5040313;28;45488;-65
2022/04/22 09:48:54;;;;;;;;;12.75;11.75;;;;;16.78;42.85;99762.91;5086101;27;47613;-66
2022/04/22 09:51:22;;;;;;;;;14.75;12.25;;;;;16.90;42.75;99766.56;5053842;28;45829;-66
2022/04/22 09:54:00;;;;;;;;;13.00;11.00;;;;;16.91;42.52;99752.13;5067472;28;47416;-66
2022/04/22 09:56:26;;;;;;;;;11.25;10.75;;;;;16.90;43.08;99739.59;5046941;28;45467;-66
2022/04/22 09:58:53;;;;;;;;;10.75;10.75;;;;;17.01;42.66;99739.66;5056720;28;45675;-66
2022/04/22 10:01:19;;;;;;;;;13.75;12.25;;;;;17.11;42.12;99752.47;5056174;28;45787;-66
2022/04/22 10:03:45;;;;;;;;;11.50;10.00;;;;;17.12;42.17;99752.31;5055314;28;45584;-66
2022/04/22 10:06:12;;;;;;;;;7.75;7.75;;;;;17.00;42.35;99724.44;5054754;28;45661;-66
2022/04/22 10:08:37;;;;;;;;;10.75;9.00;;;;;17.00;41.41;99712.81;5053255;28;47076;-66
2022/04/22 10:11:05;;;;;;;;;9.25;9.00;;;;;17.13;40.67;99729.78;5072583;28;45560;-65
2022/04/22 10:13:43;;;;;;;;;12.00;10.50;;;;;17.18;41.09;99738.38;5055559;28;46771;-65
2022/04/22 10:16:09;;;;;;;;;8.75;7.50;;;;;17.10;41.26;99710.28;5055537;28;45426;-65
2022/04/22 10:18:35;;;;;;;;;8.00;7.50;;;;;17.34;40.90;99746.19;5050664;28;45537;-65
2022/04/22 10:21:02;;;;;;;;;8.50;8.50;;;;;17.38;40.83;99749.50;5056700;28;45475;-65
2022/04/22 10:23:29;;;;;;;;;10.25;8.00;;;;;17.41;40.84;99739.31;5056017;28;45560;-65
2022/04/22 10:25:56;;;;;;;;;9.00;8.00;;;;;17.29;39.57;99715.13;5053607;28;45459;-65
2022/04/22 10:28:23;;;;;;;;;7.50;7.50;;;;;17.38;40.18;99719.81;5069205;28;45673;-65
2022/04/22 10:30:51;;;;;;;;;7.00;7.00;;;;;17.21;40.35;99691.47;5053458;28;45532;-65
2022/04/22 10:33:16;;;;;;;;;7.25;6.25;;;;;17.32;39.60;99709.50;5071796;27;47916;-65
2022/04/22 10:35:44;;;;;;;;;8.50;8.50;;;;;17.54;39.86;99735.66;5055534;28;45456;-66
2022/04/22 10:38:26;;;;;;;;;11.00;9.50;;;;;17.37;39.72;99702.78;5084371;27;45496;-66
2022/04/22 10:40:52;;;;;;;;;7.25;7.00;;;;;17.61;40.20;99728.84;5044580;28;45790;-65
2022/04/22 10:43:17;;;;;;;;;11.50;11.50;;;;;17.60;39.81;99729.81;5055134;28;46914;-65
2022/04/22 10:48:30;;;;;;;;;10.25;10.25;;;;;17.69;39.49;99730.91;5055245;28;45442;-66
2022/04/22 10:51:00;;;;;;;;;7.00;6.75;;;;;17.71;39.59;99739.78;5051828;28;45726;-66
2022/04/22 10:53:33;;;;;;;;;8.00;7.75;;;;;17.60;39.28;99727.09;5086626;27;47756;-70
2022/04/22 10:56:29;;;;;;;;;9.25;6.50;;;;;17.74;39.32;99726.91;5051540;28;45776;-66
2022/04/22 10:59:14;;;;;;;;;7.75;6.75;;;;;17.83;39.47;99728.00;5052188;28;45741;-66
2022/04/22 11:01:40;;;;;;;;;5.00;5.00;;;;;17.58;39.41;99686.75;5055261;28;45591;-65
2022/04/22 11:04:20;;;;;;;;;6.50;6.50;;;;;17.60;38.99;99670.44;5070002;28;47332;-65
2022/04/22 11:06:46;;;;;;;;;5.50;5.50;;;;;17.88;39.07;99716.88;5059560;27;45749;-65
2022/04/22 11:09:30;;;;;;;;;6.50;6.50;;;;;17.72;39.35;99666.75;5046293;28;45683;-65
2022/04/22 11:11:57;;;;;;;;;7.00;7.00;;;;;17.95;39.27;99704.59;5074841;27;46176;-65
2022/04/22 11:14:25;;;;;;;;;6.25;6.25;;;;;17.96;39.00;99696.38;5049522;28;45789;-66
2022/04/22 11:16:52;;;;;;;;;6.25;6.25;;;;;17.84;38.79;99670.34;5057947;28;45820;-65
2022/04/22 11:19:20;;;;;;;;;8.50;7.00;;;;;18.12;39.51;99708.66;5047003;28;45613;-66
2022/04/22 11:21:55;;;;;;;;;8.50;8.50;;;;;18.05;38.74;99678.59;5048159;28;45555;-66
2022/04/22 11:24:23;;;;;;;;;5.00;5.00;;;;;18.25;38.98;99695.88;5061908;28;46421;-66
2022/04/22 11:26:50;;;;;;;;;6.75;5.50;;;;;18.17;38.95;99679.44;5044358;28;45711;-66
2022/04/22 11:29:16;;;;;;;;;7.50;7.50;;;;;18.06;38.53;99663.22;5062728;28;45792;-66
2022/04/22 11:32:10;;;;;;;;;8.75;8.75;;;;;18.01;38.88;99658.22;5058294;28;45819;-64
2022/04/22 11:35:01;;;;;;;;;7.75;7.00;;;;;18.27;38.55;99691.19;5050465;28;47093;-65
2022/04/22 11:37:26;;;;;;;;;7.75;7.75;;;;;18.05;38.48;99646.19;5052676;28;45761;-64
2022/04/22 11:39:52;;;;;;;;;7.50;7.50;;;;;18.37;38.71;99704.81;5042452;28;45382;-65
2022/04/22 11:42:18;;;;;;;;;11.00;9.00;;;;;18.33;38.12;99695.25;5040851;28;45383;-65
2022/04/22 11:45:06;;;;;;;;;7.25;7.25;;;;;18.34;38.07;99688.84;5041664;28;45624;-65
2022/04/22 11:47:32;;;;;;;;;6.25;4.75;;;;;18.32;37.90;99686.28;5042039;28;45827;-66
2022/04/22 11:49:59;;;;;;;;;8.50;6.75;;;;;18.39;38.09;99683.94;5046803;28;45850;-65
2022/04/22 11:52:28;;;;;;;;;7.00;6.25;;;;;18.22;38.46;99650.22;5066574;28;45788;-66
2022/04/22 11:55:00;;;;;;;;;3.75;2.75;;;;;18.36;38.38;99659.91;5045122;28;48318;-66
2022/04/22 11:57:26;;;;;;;;;9.50;7.25;;;;;18.50;38.12;99677.66;5054065;28;45434;-65
2022/04/22 12:05:33;;;;;;;;;8.00;6.00;;;;;18.61;38.14;99661.44;5054942;28;45819;-65
2022/04/22 12:08:10;;;;;;;;;10.50;7.25;;;;;18.68;38.13;99673.44;5052148;28;45375;-65
2022/04/22 12:10:37;;;;;;;;;7.00;6.75;;;;;18.73;37.91;99667.66;5060059;28;45543;-65
2022/04/22 12:13:04;;;;;;;;;5.75;5.75;;;;;18.66;37.57;99655.63;5055076;28;45842;-65
2022/04/22 12:15:30;;;;;;;;;7.75;7.00;;;;;18.74;38.22;99674.75;5052280;28;45584;-65
2022/04/22 12:17:56;;;;;;;;;5.75;5.75;;;;;18.73;38.41;99659.53;5058351;28;45495;-65
2022/04/22 12:20:25;;;;;;;;;6.50;6.00;;;;;18.63;37.86;99628.88;5054158;27;45568;-65
2022/04/22 12:22:52;;;;;;;;;9.25;5.50;;;;;18.80;37.98;99651.78;5051817;28;45805;-65
2022/04/22 12:25:20;;;;;;;;;5.25;5.25;;;;;18.85;37.33;99663.94;5044924;28;47231;-65